createdAt,value
2022-08-26T00:02:19.423Z,4.65
2022-08-26T00:04:51.193Z,5.05
2022-08-26T00:07:20.343Z,4.95
2022-08-26T00:09:50.151Z,4.03
2022-08-26T00:12:27.903Z,5.18
2022-08-26T00:15:05.974Z,5.43
2022-08-26T00:17:34.987Z,4.68
2022-08-26T00:20:06.899Z,4.45
2022-08-26T00:22:36.106Z,4.88
2022-08-26T00:25:05.535Z,4.95
2022-08-26T00:27:35.326Z,4.28
2022-08-26T00:30:05.686Z,4.57
2022-08-26T00:32:35.276Z,4.85
2022-08-26T00:35:10.655Z,4.68
2022-08-26T00:37:39.753Z,4.72
2022-08-26T00:40:10.687Z,5.00
2022-08-26T00:42:40.917Z,4.80
2022-08-26T00:45:16.257Z,4.78
2022-08-26T00:47:50.214Z,4.75
2022-08-26T00:50:24.927Z,4.93
2022-08-26T00:52:56.867Z,4.90
2022-08-26T00:55:37.856Z,4.57
2022-08-26T00:58:08.256Z,5.20
2022-08-26T01:00:37.412Z,5.05
2022-08-26T01:03:07.607Z,5.38
2022-08-26T01:05:43.784Z,5.22
2022-08-26T01:08:12.825Z,5.50
2022-08-26T01:10:42.061Z,4.88
2022-08-26T01:13:13.746Z,5.35
2022-08-26T01:15:47.352Z,5.40
2022-08-26T01:18:16.956Z,4.68
2022-08-26T01:20:57.577Z,5.88
2022-08-26T01:23:34.002Z,5.03
2022-08-26T01:26:07.085Z,4.60
2022-08-26T01:28:51.851Z,4.55
2022-08-26T01:31:25.358Z,4.78
2022-08-26T01:34:01.332Z,4.95
2022-08-26T01:36:32.332Z,4.88
2022-08-26T01:39:03.138Z,5.22
2022-08-26T01:41:35.827Z,5.53
2022-08-26T01:44:07.882Z,5.35
2022-08-26T01:46:39.236Z,5.28
2022-08-26T01:49:10.174Z,5.65
2022-08-26T01:51:41.727Z,4.53
2022-08-26T01:54:13.743Z,6.05
2022-08-26T01:56:43.307Z,5.78
2022-08-26T01:59:16.315Z,5.65
2022-08-26T02:01:46.457Z,5.35
2022-08-26T02:04:20.349Z,5.30
2022-08-26T02:06:51.227Z,5.43
2022-08-26T02:09:23.770Z,5.45
2022-08-26T02:11:54.749Z,5.13
2022-08-26T02:14:27.267Z,5.63
2022-08-26T02:16:57.570Z,6.18
2022-08-26T02:19:30.967Z,5.60
2022-08-26T02:22:03.144Z,5.00
2022-08-26T02:24:54.273Z,5.32
2022-08-26T02:27:32.818Z,5.28
2022-08-26T02:30:08.463Z,6.45
2022-08-26T02:32:37.548Z,5.60
2022-08-26T02:35:10.783Z,5.78
2022-08-26T02:37:41.868Z,5.43
2022-08-26T02:40:13.858Z,5.40
2022-08-26T02:42:43.647Z,5.30
2022-08-26T02:45:13.229Z,5.10
2022-08-26T02:47:46.385Z,5.22
2022-08-26T02:50:16.043Z,5.05
2022-08-26T02:52:46.124Z,5.55
2022-08-26T02:55:17.075Z,5.80
2022-08-26T02:57:46.946Z,5.70
2022-08-26T03:00:17.224Z,5.45
2022-08-26T03:02:46.605Z,5.43
2022-08-26T03:05:16.956Z,5.70
2022-08-26T03:07:47.737Z,5.35
2022-08-26T03:10:19.709Z,5.75
2022-08-26T03:12:49.783Z,5.60
2022-08-26T03:15:22.748Z,6.15
2022-08-26T03:17:51.952Z,6.40
2022-08-26T03:20:21.049Z,6.18
2022-08-26T03:22:51.705Z,7.10
2022-08-26T03:25:23.422Z,6.13
2022-08-26T03:27:53.195Z,6.28
2022-08-26T03:30:45.248Z,6.53
2022-08-26T03:33:16.405Z,6.78
2022-08-26T03:35:47.646Z,6.50
2022-08-26T03:38:20.610Z,7.05
2022-08-26T03:40:51.243Z,6.80
2022-08-26T03:43:22.626Z,7.25
2022-08-26T03:45:52.007Z,7.28
2022-08-26T03:48:21.937Z,7.57
2022-08-26T03:50:51.474Z,7.57
2022-08-26T03:53:20.859Z,7.68
2022-08-26T03:55:52.139Z,7.30
2022-08-26T03:58:21.804Z,7.22
2022-08-26T04:00:55.641Z,6.20
2022-08-26T04:03:38.950Z,6.38
2022-08-26T04:06:09.297Z,6.82
2022-08-26T04:08:38.889Z,6.28
2022-08-26T04:11:09.733Z,6.88
2022-08-26T04:13:39.259Z,5.93
2022-08-26T04:16:09.132Z,6.38
2022-08-26T04:18:42.099Z,7.35
2022-08-26T04:21:16.557Z,7.20
2022-08-26T04:23:47.339Z,7.40
2022-08-26T04:26:19.526Z,7.10
2022-08-26T04:28:49.291Z,8.23
2022-08-26T04:31:20.257Z,7.25
2022-08-26T04:33:51.193Z,8.23
2022-08-26T04:36:20.481Z,8.52
2022-08-26T04:38:50.870Z,7.30
2022-08-26T04:41:22.312Z,8.57
2022-08-26T04:43:51.820Z,7.95
2022-08-26T04:46:25.753Z,6.32
2022-08-26T04:48:55.729Z,6.78
2022-08-26T04:51:28.219Z,6.43
2022-08-26T04:53:58.503Z,7.05
2022-08-26T04:56:31.668Z,6.88
2022-08-26T04:59:02.178Z,6.65
2022-08-26T05:01:32.125Z,6.85
2022-08-26T05:04:02.353Z,6.75
2022-08-26T05:06:36.921Z,6.75
2022-08-26T05:09:06.556Z,6.28
2022-08-26T05:11:38.302Z,5.43
2022-08-26T05:14:08.189Z,6.07
2022-08-26T05:16:40.313Z,5.68
2022-08-26T05:19:10.026Z,5.75
2022-08-26T05:21:39.868Z,6.10
2022-08-26T05:24:09.234Z,5.30
2022-08-26T05:26:39.823Z,5.53
2022-08-26T05:29:30.334Z,5.80
2022-08-26T05:32:01.012Z,5.30
2022-08-26T05:34:30.809Z,5.32
2022-08-26T05:37:00.299Z,5.40
2022-08-26T05:39:29.544Z,6.25
2022-08-26T05:42:00.380Z,5.47
2022-08-26T05:44:29.600Z,5.55
2022-08-26T05:47:18.999Z,5.32
2022-08-26T05:49:51.583Z,5.40
2022-08-26T05:52:21.532Z,5.35
2022-08-26T05:54:55.371Z,5.70
2022-08-26T05:57:26.030Z,5.50
2022-08-26T05:59:55.319Z,5.78
2022-08-26T06:02:25.509Z,5.82
2022-08-26T06:04:55.758Z,5.03
2022-08-26T06:07:45.079Z,5.88
2022-08-26T06:10:31.438Z,6.10
2022-08-26T06:13:11.612Z,5.55
2022-08-26T06:15:43.515Z,5.18
2022-08-26T06:18:14.755Z,5.63
2022-08-26T06:20:57.113Z,4.75
2022-08-26T06:23:46.789Z,6.15
2022-08-26T06:26:17.644Z,5.00
2022-08-26T06:28:48.473Z,5.82
2022-08-26T06:31:18.244Z,5.65
2022-08-26T06:33:48.248Z,5.57
2022-08-26T06:36:19.664Z,5.25
2022-08-26T06:38:51.782Z,5.38
2022-08-26T06:41:23.309Z,5.72
2022-08-26T06:43:54.336Z,6.28
2022-08-26T06:46:24.072Z,6.07
2022-08-26T06:48:56.033Z,5.55
2022-08-26T06:51:27.646Z,5.75
2022-08-26T06:53:59.741Z,5.40
2022-08-26T06:56:33.508Z,5.90
2022-08-26T06:59:04.718Z,5.45
2022-08-26T07:01:42.807Z,5.15
2022-08-26T07:04:15.476Z,5.25
2022-08-26T07:06:49.756Z,4.97
2022-08-26T07:09:23.024Z,5.30
2022-08-26T07:11:53.582Z,4.95
2022-08-26T07:14:26.376Z,4.75
2022-08-26T07:16:56.274Z,5.28
2022-08-26T07:19:30.087Z,5.10
2022-08-26T07:22:03.394Z,6.13
2022-08-26T07:24:35.203Z,5.68
2022-08-26T07:27:06.881Z,4.95
2022-08-26T07:29:41.402Z,5.45
2022-08-26T07:32:13.468Z,5.43
2022-08-26T07:34:43.504Z,4.97
2022-08-26T07:37:12.834Z,5.25
2022-08-26T07:39:43.622Z,5.40
2022-08-26T07:42:15.056Z,6.40
2022-08-26T07:44:46.001Z,5.85
2022-08-26T07:47:25.468Z,4.68
2022-08-26T07:49:57.658Z,5.50
2022-08-26T07:52:30.262Z,5.38
2022-08-26T07:55:02.119Z,5.45
2022-08-26T07:57:31.889Z,5.03
2022-08-26T08:00:03.422Z,5.70
2022-08-26T08:02:41.390Z,5.65
2022-08-26T08:05:10.959Z,5.63
2022-08-26T08:07:44.800Z,5.22
2022-08-26T08:10:17.646Z,4.93
2022-08-26T08:12:48.387Z,5.50
2022-08-26T08:15:20.445Z,4.97
2022-08-26T08:17:51.574Z,5.40
2022-08-26T08:20:21.595Z,5.72
2022-08-26T08:22:53.354Z,5.30
2022-08-26T08:25:23.590Z,5.47
2022-08-26T08:27:53.115Z,5.10
2022-08-26T08:30:24.734Z,5.72
2022-08-26T08:32:54.633Z,5.93
2022-08-26T08:35:26.606Z,5.38
2022-08-26T08:37:56.902Z,6.18
2022-08-26T08:40:28.061Z,6.00
2022-08-26T08:43:04.028Z,5.65
2022-08-26T08:45:39.298Z,6.05
2022-08-26T08:48:17.643Z,5.55
2022-08-26T08:50:49.514Z,5.78
2022-08-26T08:53:22.880Z,6.05
2022-08-26T08:56:07.811Z,6.30
2022-08-26T08:58:48.816Z,6.55
2022-08-26T09:01:39.759Z,5.75
2022-08-26T09:04:21.330Z,5.95
2022-08-26T09:06:55.328Z,5.65
2022-08-26T09:09:31.375Z,5.28
2022-08-26T09:12:03.941Z,5.47
2022-08-26T09:14:33.609Z,5.32
2022-08-26T09:17:11.728Z,5.63
2022-08-26T09:19:47.325Z,4.97
2022-08-26T09:22:31.326Z,5.65
2022-08-26T09:25:02.013Z,5.03
2022-08-26T09:27:40.799Z,5.10
2022-08-26T09:30:13.339Z,4.95
2022-08-26T09:32:58.938Z,5.22
2022-08-26T09:35:32.569Z,5.13
2022-08-26T09:38:02.893Z,5.28
2022-08-26T09:40:35.957Z,4.80
2022-08-26T09:43:14.063Z,4.82
2022-08-26T09:45:50.746Z,4.88
2022-08-26T09:48:31.890Z,4.80
2022-08-26T09:51:08.304Z,5.15
2022-08-26T09:53:53.532Z,5.20
2022-08-26T09:56:28.898Z,5.05
2022-08-26T09:58:59.741Z,5.32
2022-08-26T10:01:34.009Z,4.47
2022-08-26T10:04:12.645Z,5.47
2022-08-26T10:06:44.463Z,5.10
2022-08-26T10:09:18.423Z,4.50
2022-08-26T10:11:52.027Z,5.30
2022-08-26T10:14:27.030Z,4.68
2022-08-26T10:17:01.010Z,4.63
2022-08-26T10:19:41.578Z,4.70
2022-08-26T10:22:42.387Z,4.80
2022-08-26T10:25:17.032Z,4.53
2022-08-26T10:27:54.189Z,4.93
2022-08-26T10:30:26.097Z,4.60
2022-08-26T10:32:59.481Z,5.53
2022-08-26T10:35:32.457Z,5.22
2022-08-26T10:38:09.405Z,5.28
2022-08-26T10:40:49.113Z,5.60
2022-08-26T10:43:25.592Z,5.28
2022-08-26T10:45:58.921Z,4.93
2022-08-26T10:48:37.150Z,5.40
2022-08-26T10:51:08.770Z,5.80
2022-08-26T10:53:45.989Z,5.60
2022-08-26T10:56:32.093Z,5.07
2022-08-26T10:59:12.241Z,5.13
2022-08-26T11:01:51.142Z,6.22
2022-08-26T11:04:55.905Z,5.82
2022-08-26T11:07:39.611Z,5.38
2022-08-26T11:10:12.592Z,5.57
2022-08-26T11:12:58.010Z,5.72
2022-08-26T11:16:08.527Z,5.18
2022-08-26T11:18:41.957Z,5.53
2022-08-26T11:21:49.579Z,5.45
2022-08-26T11:25:02.174Z,5.18
2022-08-26T11:27:56.368Z,5.72
2022-08-26T11:30:57.900Z,5.60
2022-08-26T11:33:59.678Z,5.47
2022-08-26T11:36:43.878Z,5.35
2022-08-26T11:39:21.317Z,5.53
2022-08-26T11:41:55.942Z,5.53
2022-08-26T11:44:30.880Z,4.95
2022-08-26T11:47:03.597Z,5.43
2022-08-26T11:49:34.130Z,5.93
2022-08-26T11:52:15.311Z,5.78
2022-08-26T11:55:02.776Z,5.40
2022-08-26T11:57:37.119Z,5.88
2022-08-26T12:00:12.531Z,5.80
2022-08-26T12:02:44.604Z,5.65
2022-08-26T12:05:18.754Z,5.68
2022-08-26T12:07:53.049Z,5.78
2022-08-26T12:10:30.314Z,5.18
2022-08-26T12:13:03.889Z,5.22
2022-08-26T12:15:35.161Z,5.50
2022-08-26T12:18:29.598Z,5.53
2022-08-26T12:21:03.728Z,5.50
2022-08-26T12:23:43.391Z,4.72
2022-08-26T12:26:22.739Z,5.47
2022-08-26T12:28:57.529Z,5.18
2022-08-26T12:31:31.458Z,4.53
2022-08-26T12:34:04.432Z,5.05
2022-08-26T12:36:36.609Z,5.00
2022-08-26T12:39:11.750Z,4.70
2022-08-26T12:41:45.108Z,5.28
2022-08-26T12:44:34.936Z,5.05
2022-08-26T12:47:12.439Z,5.32
2022-08-26T12:49:43.491Z,4.63
2022-08-26T12:52:31.289Z,5.03
2022-08-26T12:55:03.544Z,5.18
2022-08-26T12:57:35.457Z,5.60
2022-08-26T13:00:35.805Z,4.72
2022-08-26T13:03:05.409Z,5.07
2022-08-26T13:05:38.169Z,5.43
2022-08-26T13:08:16.276Z,5.07
2022-08-26T13:10:49.422Z,5.85
2022-08-26T13:13:18.735Z,5.57
2022-08-26T13:15:50.290Z,5.72
2022-08-26T13:18:19.918Z,5.80
2022-08-26T13:20:49.308Z,6.10
2022-08-26T13:23:18.801Z,6.18
2022-08-26T13:25:48.022Z,6.05
2022-08-26T13:28:17.581Z,6.38
2022-08-26T13:30:50.221Z,7.47
2022-08-26T13:33:21.715Z,6.25
2022-08-26T13:35:51.506Z,5.95
2022-08-26T13:38:33.183Z,6.47
2022-08-26T13:41:03.954Z,6.20
2022-08-26T13:43:33.403Z,6.53
2022-08-26T13:46:04.300Z,6.43
2022-08-26T13:48:34.372Z,6.50
2022-08-26T13:51:08.143Z,6.55
2022-08-26T13:53:38.268Z,6.13
2022-08-26T13:56:11.205Z,6.45
2022-08-26T13:58:40.539Z,6.03
2022-08-26T14:01:11.689Z,6.43
2022-08-26T14:03:41.200Z,6.07
2022-08-26T14:06:11.184Z,6.47
2022-08-26T14:08:41.230Z,6.07
2022-08-26T14:11:10.681Z,5.75
2022-08-26T14:13:40.721Z,6.07
2022-08-26T14:16:14.587Z,5.95
2022-08-26T14:18:48.677Z,6.30
2022-08-26T14:21:20.864Z,5.85
2022-08-26T14:23:50.344Z,6.53
2022-08-26T14:26:28.940Z,6.00
2022-08-26T14:28:59.855Z,5.95
2022-08-26T14:31:31.954Z,5.82
2022-08-26T14:34:06.253Z,6.38
2022-08-26T14:36:36.313Z,6.00
2022-08-26T14:39:08.376Z,6.72
2022-08-26T14:41:42.541Z,6.13
2022-08-26T14:44:14.193Z,6.40
2022-08-26T14:46:47.817Z,6.43
2022-08-26T14:49:20.117Z,6.57
2022-08-26T14:51:50.057Z,6.65
2022-08-26T14:54:21.254Z,6.40
2022-08-26T14:56:54.161Z,6.72
2022-08-26T14:59:25.715Z,6.47
2022-08-26T15:01:57.470Z,6.57
2022-08-26T15:04:27.587Z,6.43
2022-08-26T15:06:59.000Z,7.00
2022-08-26T15:09:29.715Z,6.60
2022-08-26T15:11:59.155Z,6.28
2022-08-26T15:14:32.794Z,6.75
2022-08-26T15:17:04.012Z,6.32
2022-08-26T15:19:33.438Z,6.95
2022-08-26T15:22:02.826Z,6.57
2022-08-26T15:24:32.306Z,7.05
2022-08-26T15:27:01.550Z,6.10
2022-08-26T15:29:30.866Z,6.80
2022-08-26T15:32:03.475Z,6.25
2022-08-26T15:34:32.849Z,6.85
2022-08-26T15:37:02.338Z,6.18
2022-08-26T15:39:31.884Z,6.28
2022-08-26T15:42:01.166Z,6.30
2022-08-26T15:44:30.594Z,6.13
2022-08-26T15:46:59.771Z,6.93
2022-08-26T15:49:30.427Z,6.13
2022-08-26T15:51:59.647Z,5.63
2022-08-26T15:54:28.839Z,6.32
2022-08-26T15:56:59.656Z,5.63
2022-08-26T15:59:31.286Z,6.55
2022-08-26T16:02:00.834Z,5.50
2022-08-26T16:04:31.897Z,5.80
2022-08-26T16:07:01.117Z,5.97
2022-08-26T16:09:30.998Z,5.82
2022-08-26T16:12:00.575Z,5.88
2022-08-26T16:14:30.397Z,5.60
2022-08-26T16:16:59.784Z,5.78
2022-08-26T16:19:30.823Z,6.10
2022-08-26T16:22:00.003Z,5.90
2022-08-26T16:24:30.633Z,5.70
2022-08-26T16:27:00.383Z,5.38
2022-08-26T16:29:32.233Z,5.13
2022-08-26T16:32:08.866Z,5.78
2022-08-26T16:34:47.092Z,5.40
2022-08-26T16:37:25.904Z,5.65
2022-08-26T16:39:55.304Z,5.47
2022-08-26T16:42:24.902Z,5.45
2022-08-26T16:44:54.074Z,5.70
2022-08-26T16:47:23.472Z,5.30
2022-08-26T16:49:54.373Z,5.07
2022-08-26T16:52:24.890Z,5.22
2022-08-26T16:54:59.703Z,4.97
2022-08-26T16:57:28.950Z,4.97
2022-08-26T16:59:58.213Z,4.88
2022-08-26T17:02:27.694Z,4.88
2022-08-26T17:04:58.573Z,5.18
2022-08-26T17:07:27.976Z,5.18
2022-08-26T17:09:58.408Z,5.70
2022-08-26T17:12:29.236Z,5.32
2022-08-26T17:14:58.525Z,5.70
2022-08-26T17:17:27.785Z,5.63
2022-08-26T17:19:59.573Z,6.18
2022-08-26T17:22:32.797Z,6.07
2022-08-26T17:25:03.943Z,5.93
2022-08-26T17:27:33.346Z,7.35
2022-08-26T17:30:02.612Z,5.60
2022-08-26T17:32:31.729Z,5.60
2022-08-26T17:35:02.849Z,5.70
2022-08-26T17:37:32.119Z,5.53
2022-08-26T17:40:01.365Z,5.82
2022-08-26T17:42:31.839Z,5.78
2022-08-26T17:45:01.274Z,5.45
2022-08-26T17:47:30.471Z,5.65
2022-08-26T17:50:01.066Z,5.45
2022-08-26T17:52:32.164Z,6.13
2022-08-26T17:55:01.304Z,5.53
2022-08-26T17:57:30.776Z,5.97
2022-08-26T17:59:59.962Z,6.30
2022-08-26T18:05:03.466Z,5.55
2022-08-26T18:07:41.366Z,6.35
2022-08-26T18:10:17.080Z,5.97
2022-08-26T18:12:46.312Z,5.95
2022-08-26T18:15:18.082Z,6.10
2022-08-26T18:17:47.267Z,6.28
2022-08-26T18:20:18.851Z,5.97
2022-08-26T18:22:49.970Z,6.55
2022-08-26T18:25:19.585Z,6.38
2022-08-26T18:27:48.739Z,7.15
2022-08-26T18:30:21.013Z,6.38
2022-08-26T18:32:50.444Z,6.57
2022-08-26T18:35:21.610Z,6.43
2022-08-26T18:37:52.146Z,6.13
2022-08-26T18:40:21.570Z,6.47
2022-08-26T18:42:54.045Z,6.20
2022-08-26T18:45:23.633Z,7.18
2022-08-26T18:47:53.177Z,7.15
2022-08-26T18:50:22.436Z,6.75
2022-08-26T18:52:53.036Z,6.55
2022-08-26T18:55:22.399Z,6.75
2022-08-26T18:57:52.108Z,6.60
2022-08-26T19:00:21.830Z,6.03
2022-08-26T19:02:52.086Z,6.30
2022-08-26T19:05:25.896Z,7.03
2022-08-26T19:07:56.794Z,6.88
2022-08-26T19:10:26.076Z,6.90
2022-08-26T19:12:57.420Z,6.63
2022-08-26T19:15:29.723Z,6.70
2022-08-26T19:17:59.373Z,6.70
2022-08-26T19:20:28.763Z,6.55
2022-08-26T19:23:02.660Z,6.63
2022-08-26T19:25:42.995Z,7.15
2022-08-26T19:28:12.288Z,7.28
2022-08-26T19:30:42.299Z,7.30
2022-08-26T19:33:13.861Z,7.13
2022-08-26T19:35:44.494Z,6.38
2022-08-26T19:38:16.054Z,6.45
2022-08-26T19:40:45.262Z,6.53
2022-08-26T19:43:14.702Z,6.05
2022-08-26T19:45:44.186Z,6.47
2022-08-26T19:48:13.719Z,6.10
2022-08-26T19:50:43.041Z,6.30
2022-08-26T19:53:12.455Z,6.47
2022-08-26T19:55:43.315Z,5.88
2022-08-26T19:58:13.341Z,6.25
2022-08-26T20:00:43.061Z,5.90
2022-08-26T20:03:14.770Z,6.00
2022-08-26T20:05:45.346Z,6.20
2022-08-26T20:08:22.145Z,6.40
2022-08-26T20:10:54.576Z,7.22
2022-08-26T20:13:24.143Z,6.70
2022-08-26T20:15:53.524Z,6.93
2022-08-26T20:18:40.560Z,6.95
2022-08-26T20:21:28.307Z,6.38
2022-08-26T20:24:01.085Z,6.88
2022-08-26T20:26:33.616Z,6.85
2022-08-26T20:29:03.006Z,7.00
2022-08-26T20:31:32.891Z,7.13
2022-08-26T20:34:03.138Z,6.97
2022-08-26T20:36:32.731Z,7.22
2022-08-26T20:39:02.291Z,7.15
2022-08-26T20:41:33.326Z,6.70
2022-08-26T20:44:03.064Z,6.70
2022-08-26T20:46:32.520Z,6.47
2022-08-26T20:49:02.075Z,6.90
2022-08-26T20:51:35.538Z,7.05
2022-08-26T20:54:05.251Z,8.10
2022-08-26T20:56:35.826Z,7.85
2022-08-26T20:59:08.190Z,8.40
2022-08-26T21:01:41.977Z,16.42
2022-08-26T21:04:14.106Z,15.05
2022-08-26T21:06:47.281Z,15.35
2022-08-26T21:09:22.887Z,9.80
2022-08-26T21:11:54.033Z,7.07
2022-08-26T21:14:25.675Z,7.82
2022-08-26T21:16:55.521Z,7.20
2022-08-26T21:19:24.717Z,6.95
2022-08-26T21:21:53.933Z,7.35
2022-08-26T21:24:23.214Z,7.35
2022-08-26T21:26:53.636Z,7.78
2022-08-26T21:29:23.383Z,7.82
2022-08-26T21:31:53.381Z,8.20
2022-08-26T21:34:22.510Z,10.10
2022-08-26T21:36:51.683Z,8.65
2022-08-26T21:39:20.901Z,8.13
2022-08-26T21:41:50.154Z,8.93
2022-08-26T21:44:20.616Z,8.98
2022-08-26T21:46:50.080Z,8.63
2022-08-26T21:49:19.205Z,7.88
2022-08-26T21:51:50.146Z,8.30
2022-08-26T21:54:19.534Z,9.48
2022-08-26T21:56:49.154Z,8.85
2022-08-26T21:59:20.943Z,8.10
2022-08-26T22:01:50.212Z,8.55
2022-08-26T22:04:19.915Z,7.95
2022-08-26T22:06:51.185Z,7.93
2022-08-26T22:09:22.406Z,8.25
2022-08-26T22:11:52.785Z,7.30
2022-08-26T22:14:27.364Z,8.48
2022-08-26T22:17:00.029Z,7.93
2022-08-26T22:19:32.099Z,8.15
2022-08-26T22:22:03.894Z,7.35
2022-08-26T22:24:33.176Z,8.55
2022-08-26T22:27:02.407Z,7.70
2022-08-26T22:29:33.630Z,8.75
2022-08-26T22:32:02.874Z,7.97
2022-08-26T22:34:32.485Z,8.02
2022-08-26T22:37:03.426Z,7.55
2022-08-26T22:39:32.605Z,8.48
2022-08-26T22:42:04.170Z,9.45
2022-08-26T22:44:37.134Z,8.32
2022-08-26T22:47:06.653Z,11.18
2022-08-26T22:49:35.818Z,10.07
2022-08-26T22:52:05.459Z,10.23
2022-08-26T22:54:34.798Z,9.25
2022-08-26T22:57:04.175Z,10.30
2022-08-26T22:59:34.715Z,8.65
2022-08-26T23:02:03.892Z,8.18
2022-08-26T23:04:33.003Z,8.20
2022-08-26T23:07:04.026Z,8.52
2022-08-26T23:09:33.440Z,8.25
2022-08-26T23:12:02.595Z,7.75
2022-08-26T23:14:35.350Z,8.93
2022-08-26T23:17:04.531Z,8.73
2022-08-26T23:19:33.608Z,8.50
2022-08-26T23:22:02.653Z,8.02
2022-08-26T23:24:31.744Z,7.60
2022-08-26T23:27:01.534Z,8.32
2022-08-26T23:29:30.977Z,8.45
2022-08-26T23:32:01.669Z,8.18
2022-08-26T23:34:48.697Z,7.68
2022-08-26T23:37:19.876Z,8.13
2022-08-26T23:39:50.844Z,8.18
2022-08-26T23:42:20.013Z,8.20
2022-08-26T23:44:49.185Z,7.93
2022-08-26T23:47:21.341Z,7.80
2022-08-26T23:49:50.356Z,8.27
2022-08-26T23:52:37.226Z,8.63
2022-08-26T23:55:08.595Z,8.05
2022-08-26T23:57:38.146Z,8.10
